createdAt,value
2019-03-06T00:00:27.032Z,1003.36
2019-03-06T00:01:27.007Z,1003.32
2019-03-06T00:02:26.984Z,1003.34
2019-03-06T00:03:27.003Z,1003.30
2019-03-06T00:04:26.933Z,1003.29
2019-03-06T00:05:26.919Z,1003.27
2019-03-06T00:06:26.886Z,1003.27
2019-03-06T00:07:26.874Z,1003.31
2019-03-06T00:08:26.839Z,1003.27
2019-03-06T00:09:26.816Z,1003.28
2019-03-06T00:10:26.791Z,1003.29
2019-03-06T00:11:26.768Z,1003.30
2019-03-06T00:12:26.747Z,1003.31
2019-03-06T00:13:26.723Z,1003.32
2019-03-06T00:14:26.704Z,1003.31
2019-03-06T00:15:26.674Z,1003.31
2019-03-06T00:16:26.648Z,1003.29
2019-03-06T00:17:26.626Z,1003.27
2019-03-06T00:18:26.603Z,1003.23
2019-03-06T00:19:26.579Z,1003.25
2019-03-06T00:20:26.555Z,1003.19
2019-03-06T00:21:26.531Z,1003.22
2019-03-06T00:22:26.508Z,1003.21
2019-03-06T00:23:26.487Z,1003.19
2019-03-06T00:24:26.460Z,1003.19
2019-03-06T00:25:26.435Z,1003.20
2019-03-06T00:26:26.412Z,1003.20
2019-03-06T00:27:26.392Z,1003.17
2019-03-06T00:28:26.365Z,1003.17
2019-03-06T00:29:26.364Z,1003.18
2019-03-06T00:30:26.318Z,1003.18
2019-03-06T00:31:26.305Z,1003.16
2019-03-06T00:32:26.271Z,1003.16
2019-03-06T00:33:26.246Z,1003.13
2019-03-06T00:34:26.222Z,1003.13
2019-03-06T00:35:26.200Z,1003.13
2019-03-06T00:36:26.176Z,1003.15
2019-03-06T00:37:26.160Z,1003.11
2019-03-06T00:38:26.129Z,1003.07
2019-03-06T00:39:26.110Z,1003.08
2019-03-06T00:40:26.090Z,1003.07
2019-03-06T00:41:26.069Z,1003.08
2019-03-06T00:42:26.037Z,1003.03
2019-03-06T00:43:26.012Z,1003.00
2019-03-06T00:44:25.985Z,1003.03
2019-03-06T00:45:26.711Z,1003.00
2019-03-06T00:46:25.949Z,1003.02
2019-03-06T00:47:25.912Z,1003.02
2019-03-06T00:48:25.900Z,1003.07
2019-03-06T00:49:25.867Z,1003.07
2019-03-06T00:50:25.841Z,1003.12
2019-03-06T00:51:25.818Z,1003.08
2019-03-06T00:52:25.793Z,1003.03
2019-03-06T00:53:25.770Z,1003.02
2019-03-06T00:54:25.746Z,1003.04
2019-03-06T00:55:25.723Z,1003.07
2019-03-06T00:56:25.701Z,1003.05
2019-03-06T00:57:25.676Z,1003.09
2019-03-06T00:58:25.652Z,1003.09
2019-03-06T00:59:25.629Z,1003.04
2019-03-06T01:00:25.607Z,1003.07
2019-03-06T01:01:25.580Z,1003.10
2019-03-06T01:02:25.556Z,1003.06
2019-03-06T01:03:25.533Z,1003.03
2019-03-06T01:04:25.557Z,1003.07
2019-03-06T01:05:25.490Z,1003.10
2019-03-06T01:06:25.461Z,1003.10
2019-03-06T01:07:25.445Z,1003.04
2019-03-06T01:08:25.413Z,1003.02
2019-03-06T01:09:25.395Z,1003.03
2019-03-06T01:10:25.366Z,1003.01
2019-03-06T01:11:25.347Z,1003.04
2019-03-06T01:12:25.328Z,1003.01
2019-03-06T01:13:25.298Z,1003.02
2019-03-06T01:14:25.285Z,1003.05
2019-03-06T01:15:25.248Z,1003.01
2019-03-06T01:16:25.222Z,1003.02
2019-03-06T01:17:25.200Z,1003.02
2019-03-06T01:18:25.179Z,1003.00
2019-03-06T01:19:25.152Z,1002.99
2019-03-06T01:20:25.134Z,1002.94
2019-03-06T01:21:25.104Z,1002.92
2019-03-06T01:22:25.087Z,1002.90
2019-03-06T01:23:25.061Z,1002.88
2019-03-06T01:24:25.033Z,1002.82
2019-03-06T01:25:25.010Z,1002.80
2019-03-06T01:26:24.988Z,1002.78
2019-03-06T01:27:24.966Z,1002.72
2019-03-06T01:28:24.940Z,1002.75
2019-03-06T01:29:24.919Z,1002.72
2019-03-06T01:30:24.904Z,1002.74
2019-03-06T01:31:24.868Z,1002.68
2019-03-06T01:32:24.847Z,1002.66
2019-03-06T01:33:24.823Z,1002.65
2019-03-06T01:34:24.842Z,1002.64
2019-03-06T01:35:24.773Z,1002.63
2019-03-06T01:36:24.748Z,1002.65
2019-03-06T01:37:24.730Z,1002.60
2019-03-06T01:38:24.706Z,1002.59
2019-03-06T01:39:24.679Z,1002.59
2019-03-06T01:40:24.652Z,1002.61
2019-03-06T01:41:24.628Z,1002.60
2019-03-06T01:42:24.608Z,1002.59
2019-03-06T01:43:24.591Z,1002.57
2019-03-06T01:44:24.557Z,1002.57
2019-03-06T01:45:24.534Z,1002.54
2019-03-06T01:46:24.509Z,1002.56
2019-03-06T01:47:24.489Z,1002.52
2019-03-06T01:48:24.463Z,1002.53
2019-03-06T01:49:24.443Z,1002.51
2019-03-06T01:50:24.425Z,1002.55
2019-03-06T01:51:24.395Z,1002.55
2019-03-06T01:52:24.367Z,1002.58
2019-03-06T01:53:24.343Z,1002.58
2019-03-06T01:54:24.318Z,1002.58
2019-03-06T01:55:24.298Z,1002.53
2019-03-06T01:56:24.276Z,1002.55
2019-03-06T01:57:24.250Z,1002.56
2019-03-06T01:58:24.230Z,1002.53
2019-03-06T01:59:24.202Z,1002.48
2019-03-06T02:00:24.177Z,1002.50
2019-03-06T02:01:24.155Z,1002.48
2019-03-06T02:02:24.133Z,1002.43
2019-03-06T02:03:24.108Z,1002.49
2019-03-06T02:04:24.082Z,1002.44
2019-03-06T02:05:24.066Z,1002.46
2019-03-06T02:06:24.044Z,1002.46
2019-03-06T02:07:24.012Z,1002.43
2019-03-06T02:08:23.988Z,1002.38
2019-03-06T02:09:23.963Z,1002.39
2019-03-06T02:10:23.938Z,1002.34
2019-03-06T02:11:23.920Z,1002.32
2019-03-06T02:12:23.894Z,1002.28
2019-03-06T02:13:23.871Z,1002.24
2019-03-06T02:14:23.844Z,1002.24
2019-03-06T02:15:23.823Z,1002.25
2019-03-06T02:16:23.805Z,1002.23
2019-03-06T02:17:23.778Z,1002.19
2019-03-06T02:18:23.750Z,1002.20
2019-03-06T02:19:23.733Z,1002.17
2019-03-06T02:20:23.711Z,1002.16
2019-03-06T02:21:23.682Z,1002.20
2019-03-06T02:22:23.654Z,1002.16
2019-03-06T02:23:23.632Z,1002.13
2019-03-06T02:24:23.606Z,1002.13
2019-03-06T02:25:23.587Z,1002.10
2019-03-06T02:26:23.561Z,1002.08
2019-03-06T02:27:23.536Z,1002.08
2019-03-06T02:28:23.514Z,1002.05
2019-03-06T02:29:23.487Z,1002.06
2019-03-06T02:30:23.469Z,1002.06
2019-03-06T02:31:23.440Z,1002.01
2019-03-06T02:32:23.417Z,1002.03
2019-03-06T02:33:23.404Z,1002.01
2019-03-06T02:34:23.378Z,1001.98
2019-03-06T02:35:23.347Z,1001.92
2019-03-06T02:36:23.328Z,1001.93
2019-03-06T02:37:23.300Z,1001.94
2019-03-06T02:38:23.276Z,1001.92
2019-03-06T02:39:23.253Z,1001.90
2019-03-06T02:40:23.229Z,1001.93
2019-03-06T02:41:23.205Z,1001.89
2019-03-06T02:42:23.182Z,1001.82
2019-03-06T02:43:23.159Z,1001.80
2019-03-06T02:44:23.133Z,1001.78
2019-03-06T02:45:23.108Z,1001.72
2019-03-06T02:46:23.083Z,1001.77
2019-03-06T02:47:23.061Z,1001.72
2019-03-06T02:48:23.040Z,1001.67
2019-03-06T02:49:23.018Z,1001.66
2019-03-06T02:50:23.069Z,1001.67
2019-03-06T02:51:22.966Z,1001.65
2019-03-06T02:52:22.940Z,1001.67
2019-03-06T02:53:22.918Z,1001.60
2019-03-06T02:54:22.900Z,1001.59
2019-03-06T02:55:22.869Z,1001.58
2019-03-06T02:56:22.846Z,1001.60
2019-03-06T02:57:22.821Z,1001.63
2019-03-06T02:58:22.798Z,1001.59
2019-03-06T02:59:22.773Z,1001.60
2019-03-06T03:00:22.751Z,1001.61
2019-03-06T03:01:22.726Z,1001.59
2019-03-06T03:02:22.706Z,1001.59
2019-03-06T03:03:22.679Z,1001.56
2019-03-06T03:04:22.903Z,1001.56
2019-03-06T03:05:22.633Z,1001.52
2019-03-06T03:06:22.610Z,1001.55
2019-03-06T03:07:22.589Z,1001.58
2019-03-06T03:08:22.559Z,1001.60
2019-03-06T03:09:22.535Z,1001.60
2019-03-06T03:10:22.511Z,1001.56
2019-03-06T03:11:22.509Z,1001.52
2019-03-06T03:12:22.465Z,1001.49
2019-03-06T03:13:22.440Z,1001.46
2019-03-06T03:14:22.416Z,1001.43
2019-03-06T03:15:22.401Z,1001.44
2019-03-06T03:16:22.370Z,1001.42
2019-03-06T03:17:22.353Z,1001.37
2019-03-06T03:18:22.322Z,1001.37
2019-03-06T03:19:22.299Z,1001.32
2019-03-06T03:20:22.291Z,1001.30
2019-03-06T03:21:22.249Z,1001.32
2019-03-06T03:22:22.226Z,1001.26
2019-03-06T03:23:22.202Z,1001.27
2019-03-06T03:24:22.185Z,1001.27
2019-03-06T03:25:22.153Z,1001.22
2019-03-06T03:26:22.130Z,1001.20
2019-03-06T03:27:22.109Z,1001.19
2019-03-06T03:28:22.084Z,1001.19
2019-03-06T03:29:22.060Z,1001.15
2019-03-06T03:30:22.057Z,1001.13
2019-03-06T03:31:22.011Z,1001.11
2019-03-06T03:32:21.989Z,1001.08
2019-03-06T03:33:21.963Z,1001.02
2019-03-06T03:34:22.022Z,1000.99
2019-03-06T03:35:21.922Z,1000.98
2019-03-06T03:36:21.891Z,1000.99
2019-03-06T03:37:21.869Z,1000.91
2019-03-06T03:38:21.845Z,1000.94
2019-03-06T03:39:21.821Z,1000.87
2019-03-06T03:40:21.796Z,1000.86
2019-03-06T03:41:21.772Z,1000.80
2019-03-06T03:42:21.750Z,1000.76
2019-03-06T03:43:21.724Z,1000.79
2019-03-06T03:44:21.702Z,1000.79
2019-03-06T03:45:21.676Z,1000.79
2019-03-06T03:46:21.661Z,1000.83
2019-03-06T03:47:21.637Z,1000.78
2019-03-06T03:48:21.609Z,1000.81
2019-03-06T03:49:21.583Z,1000.81
2019-03-06T03:50:21.561Z,1000.85
2019-03-06T03:51:21.537Z,1000.87
2019-03-06T03:52:21.512Z,1000.90
2019-03-06T03:53:21.488Z,1000.89
2019-03-06T03:54:21.473Z,1000.87
2019-03-06T03:55:21.440Z,1000.86
2019-03-06T03:56:21.419Z,1000.79
2019-03-06T03:57:21.391Z,1000.78
2019-03-06T03:58:21.368Z,1000.74
2019-03-06T03:59:21.356Z,1000.70
2019-03-06T04:00:21.344Z,1000.66
2019-03-06T04:01:21.298Z,1000.65
2019-03-06T04:02:21.276Z,1000.60
2019-03-06T04:03:21.251Z,1000.60
2019-03-06T04:04:23.834Z,1000.55
2019-03-06T04:05:21.202Z,1000.55
2019-03-06T04:06:21.188Z,1000.52
2019-03-06T04:07:21.154Z,1000.53
2019-03-06T04:08:21.134Z,1000.51
2019-03-06T04:09:21.115Z,1000.55
2019-03-06T04:10:21.087Z,1000.57
2019-03-06T04:11:21.057Z,1000.53
2019-03-06T04:12:21.032Z,1000.58
2019-03-06T04:13:21.009Z,1000.50
2019-03-06T04:14:20.986Z,1000.52
2019-03-06T04:15:20.962Z,1000.53
2019-03-06T04:16:20.936Z,1000.54
2019-03-06T04:17:20.917Z,1000.55
2019-03-06T04:18:20.894Z,1000.54
2019-03-06T04:19:20.867Z,1000.55
2019-03-06T04:20:20.843Z,1000.55
2019-03-06T04:21:20.818Z,1000.57
2019-03-06T04:22:20.796Z,1000.54
2019-03-06T04:23:20.773Z,1000.56
2019-03-06T04:24:20.747Z,1000.55
2019-03-06T04:25:20.722Z,1000.58
2019-03-06T04:26:20.700Z,1000.56
2019-03-06T04:27:20.680Z,1000.60
2019-03-06T04:28:20.657Z,1000.62
2019-03-06T04:29:20.627Z,1000.65
2019-03-06T04:30:20.604Z,1000.60
2019-03-06T04:31:20.579Z,1000.64
2019-03-06T04:32:20.567Z,1000.61
2019-03-06T04:33:20.533Z,1000.59
2019-03-06T04:34:20.511Z,1000.60
2019-03-06T04:35:20.486Z,1000.59
2019-03-06T04:36:20.464Z,1000.61
2019-03-06T04:37:20.437Z,1000.61
2019-03-06T04:38:20.412Z,1000.59
2019-03-06T04:39:20.392Z,1000.58
2019-03-06T04:40:20.365Z,1000.61
2019-03-06T04:41:20.341Z,1000.60
2019-03-06T04:42:20.321Z,1000.59
2019-03-06T04:43:20.295Z,1000.59
2019-03-06T04:44:20.272Z,1000.59
2019-03-06T04:45:20.247Z,1000.66
2019-03-06T04:46:20.224Z,1000.64
2019-03-06T04:47:20.211Z,1000.61
2019-03-06T04:48:20.176Z,1000.60
2019-03-06T04:49:20.152Z,1000.57
2019-03-06T04:50:20.130Z,1000.55
2019-03-06T04:51:20.106Z,1000.60
2019-03-06T04:52:20.085Z,1000.53
2019-03-06T04:53:20.060Z,1000.49
2019-03-06T04:54:20.034Z,1000.51
2019-03-06T04:55:20.011Z,1000.46
2019-03-06T04:56:19.985Z,1000.46
2019-03-06T04:57:19.961Z,1000.39
2019-03-06T04:58:19.941Z,1000.37
2019-03-06T04:59:19.919Z,1000.34
2019-03-06T05:00:19.893Z,1000.27
2019-03-06T05:01:19.873Z,1000.30
2019-03-06T05:02:19.847Z,1000.29
2019-03-06T05:03:19.820Z,1000.27
2019-03-06T05:04:19.797Z,1000.23
2019-03-06T05:05:19.771Z,1000.18
2019-03-06T05:06:19.751Z,1000.16
2019-03-06T05:07:19.726Z,1000.17
2019-03-06T05:08:19.704Z,1000.09
2019-03-06T05:09:19.676Z,1000.15
2019-03-06T05:10:19.663Z,1000.11
2019-03-06T05:11:19.629Z,1000.08
2019-03-06T05:12:19.605Z,1000.07
2019-03-06T05:13:19.582Z,1000.02
2019-03-06T05:14:19.561Z,999.99
2019-03-06T05:15:19.536Z,999.98
2019-03-06T05:16:19.512Z,999.96
2019-03-06T05:17:19.489Z,1000.00
2019-03-06T05:18:19.465Z,1000.01
2019-03-06T05:19:19.441Z,999.98
2019-03-06T05:20:19.416Z,999.98
2019-03-06T05:21:19.397Z,1000.01
2019-03-06T05:22:19.371Z,1000.03
2019-03-06T05:23:19.348Z,1000.03
2019-03-06T05:24:19.326Z,1000.05
2019-03-06T05:25:19.301Z,1000.05
2019-03-06T05:26:19.276Z,1000.05
2019-03-06T05:27:19.258Z,1000.00
2019-03-06T05:28:19.231Z,1000.00
2019-03-06T05:29:19.212Z,999.97
2019-03-06T05:30:19.185Z,999.95
2019-03-06T05:31:19.158Z,999.96
2019-03-06T05:32:19.135Z,999.86
2019-03-06T05:33:19.111Z,999.85
2019-03-06T05:34:19.088Z,999.78
2019-03-06T05:35:19.066Z,999.77
2019-03-06T05:36:19.042Z,999.72
2019-03-06T05:37:19.019Z,999.76
2019-03-06T05:38:18.999Z,999.71
2019-03-06T05:39:18.970Z,999.74
2019-03-06T05:40:18.946Z,999.72
2019-03-06T05:41:18.924Z,999.75
2019-03-06T05:42:18.900Z,999.74
2019-03-06T05:43:18.876Z,999.77
2019-03-06T05:44:18.852Z,999.77
2019-03-06T05:45:18.831Z,999.77
2019-03-06T05:46:18.813Z,999.73
2019-03-06T05:47:18.781Z,999.70
2019-03-06T05:48:18.761Z,999.64
2019-03-06T05:49:18.734Z,999.62
2019-03-06T05:50:20.251Z,999.62
2019-03-06T05:51:18.688Z,999.59
2019-03-06T05:52:18.666Z,999.56
2019-03-06T05:53:18.639Z,999.58
2019-03-06T05:54:18.615Z,999.60
2019-03-06T05:55:18.592Z,999.63
2019-03-06T05:56:18.572Z,999.66
2019-03-06T05:57:18.544Z,999.67
2019-03-06T05:58:18.520Z,999.62
2019-03-06T05:59:18.499Z,999.59
2019-03-06T06:00:18.485Z,999.53
2019-03-06T06:01:18.452Z,999.51
2019-03-06T06:02:18.428Z,999.45
2019-03-06T06:03:18.407Z,999.36
2019-03-06T06:04:18.381Z,999.33
2019-03-06T06:05:18.356Z,999.34
2019-03-06T06:06:18.332Z,999.29
2019-03-06T06:07:18.310Z,999.24
2019-03-06T06:08:18.288Z,999.21
2019-03-06T06:09:18.264Z,999.21
2019-03-06T06:10:18.237Z,999.20
2019-03-06T06:11:18.223Z,999.17
2019-03-06T06:12:18.193Z,999.15
2019-03-06T06:13:18.173Z,999.13
2019-03-06T06:14:18.146Z,999.12
2019-03-06T06:15:18.122Z,999.11
2019-03-06T06:16:18.097Z,999.07
2019-03-06T06:17:18.072Z,999.05
2019-03-06T06:18:18.050Z,999.02
2019-03-06T06:19:18.028Z,999.02
2019-03-06T06:20:18.003Z,999.04
2019-03-06T06:21:17.979Z,999.04
2019-03-06T06:22:17.959Z,998.99
2019-03-06T06:23:17.934Z,998.99
2019-03-06T06:24:17.919Z,998.98
2019-03-06T06:25:17.887Z,998.98
2019-03-06T06:26:17.864Z,998.99
2019-03-06T06:27:17.843Z,999.00
2019-03-06T06:28:17.821Z,999.03
2019-03-06T06:29:17.789Z,999.14
2019-03-06T06:30:17.766Z,999.07
2019-03-06T06:31:17.748Z,999.09
2019-03-06T06:32:17.727Z,999.06
2019-03-06T06:33:17.695Z,999.11
2019-03-06T06:34:17.674Z,999.05
2019-03-06T06:35:17.650Z,999.03
2019-03-06T06:36:17.631Z,999.00
2019-03-06T06:37:17.603Z,999.04
2019-03-06T06:38:17.578Z,999.05
2019-03-06T06:39:17.556Z,999.08
2019-03-06T06:40:17.530Z,999.11
2019-03-06T06:41:17.507Z,999.12
2019-03-06T06:42:17.486Z,999.09
2019-03-06T06:43:17.463Z,999.05
2019-03-06T06:44:17.436Z,999.07
2019-03-06T06:45:17.414Z,999.02
2019-03-06T06:46:17.389Z,998.94
2019-03-06T06:47:17.368Z,998.93
2019-03-06T06:48:17.342Z,998.85
2019-03-06T06:49:17.320Z,998.84
2019-03-06T06:50:17.294Z,998.82
2019-03-06T06:51:17.272Z,998.85
2019-03-06T06:52:17.251Z,998.81
2019-03-06T06:53:17.227Z,998.77
2019-03-06T06:54:17.202Z,998.79
2019-03-06T06:55:17.177Z,998.79
2019-03-06T06:56:17.151Z,998.77
2019-03-06T06:57:17.128Z,998.78
2019-03-06T06:58:17.104Z,998.73
2019-03-06T06:59:17.090Z,998.73
2019-03-06T07:00:17.071Z,998.72
2019-03-06T07:01:17.037Z,998.70
2019-03-06T07:02:17.011Z,998.68
2019-03-06T07:03:16.988Z,998.73
2019-03-06T07:04:16.963Z,998.63
2019-03-06T07:05:16.941Z,998.59
2019-03-06T07:06:16.918Z,998.61
2019-03-06T07:07:16.894Z,998.57
2019-03-06T07:08:16.868Z,998.57
2019-03-06T07:09:16.850Z,998.57
2019-03-06T07:10:16.826Z,998.52
2019-03-06T07:11:16.798Z,998.54
2019-03-06T07:12:16.782Z,998.50
2019-03-06T07:13:16.752Z,998.50
2019-03-06T07:14:16.728Z,998.51
2019-03-06T07:15:16.744Z,998.45
2019-03-06T07:16:16.682Z,998.46
2019-03-06T07:17:16.657Z,998.46
2019-03-06T07:18:16.645Z,998.38
2019-03-06T07:19:16.615Z,998.40
2019-03-06T07:20:16.589Z,998.40
2019-03-06T07:21:16.567Z,998.38
2019-03-06T07:22:16.542Z,998.36
2019-03-06T07:23:16.519Z,998.29
2019-03-06T07:24:16.496Z,998.31
2019-03-06T07:25:16.472Z,998.30
2019-03-06T07:26:16.446Z,998.28
2019-03-06T07:27:16.432Z,998.30
2019-03-06T07:28:16.403Z,998.29
2019-03-06T07:29:16.379Z,998.29
2019-03-06T07:30:16.359Z,998.24
2019-03-06T07:31:16.337Z,998.23
2019-03-06T07:32:16.304Z,998.19
2019-03-06T07:33:16.282Z,998.20
2019-03-06T07:34:16.263Z,998.19
2019-03-06T07:35:16.234Z,998.16
2019-03-06T07:36:16.211Z,998.17
2019-03-06T07:37:16.192Z,998.13
2019-03-06T07:38:16.167Z,998.15
2019-03-06T07:39:16.143Z,998.13
2019-03-06T07:40:16.119Z,998.13
2019-03-06T07:41:16.113Z,998.12
2019-03-06T07:42:16.076Z,998.09
2019-03-06T07:43:16.060Z,998.06
2019-03-06T07:44:16.025Z,998.10
2019-03-06T07:45:16.004Z,998.03
2019-03-06T07:46:15.985Z,998.04
2019-03-06T07:47:15.957Z,998.02
2019-03-06T07:48:15.932Z,998.10
2019-03-06T07:49:15.909Z,998.04
2019-03-06T07:50:15.883Z,998.06
2019-03-06T07:51:15.864Z,998.09
2019-03-06T07:52:15.839Z,998.07
2019-03-06T07:53:15.819Z,998.10
2019-03-06T07:54:15.799Z,998.06
2019-03-06T07:55:15.779Z,998.08
2019-03-06T07:56:15.744Z,998.08
2019-03-06T07:57:15.725Z,998.13
2019-03-06T07:58:15.699Z,998.11
2019-03-06T07:59:15.676Z,998.16
2019-03-06T08:00:15.658Z,998.12
2019-03-06T08:01:17.256Z,998.10
2019-03-06T08:02:15.606Z,998.09
2019-03-06T08:03:15.587Z,998.03
2019-03-06T08:04:15.559Z,998.09
2019-03-06T08:05:15.542Z,998.05
2019-03-06T08:06:15.519Z,998.05
2019-03-06T08:07:15.497Z,998.04
2019-03-06T08:08:15.464Z,998.06
2019-03-06T08:09:15.442Z,998.04
2019-03-06T08:10:15.419Z,998.01
2019-03-06T08:11:15.410Z,997.98
2019-03-06T08:12:15.372Z,997.98
2019-03-06T08:13:15.351Z,997.96
2019-03-06T08:14:21.982Z,997.93
2019-03-06T08:15:15.306Z,997.96
2019-03-06T08:16:15.281Z,997.92
2019-03-06T08:17:15.257Z,997.90
2019-03-06T08:18:15.243Z,997.88
2019-03-06T08:19:15.211Z,997.88
2019-03-06T08:20:15.187Z,997.87
2019-03-06T08:21:15.163Z,997.84
2019-03-06T08:22:15.142Z,997.85
2019-03-06T08:23:15.117Z,997.81
2019-03-06T08:24:15.103Z,997.77
2019-03-06T08:25:15.072Z,997.76
2019-03-06T08:26:15.059Z,997.76
2019-03-06T08:27:15.025Z,997.74
2019-03-06T08:28:15.002Z,997.75
2019-03-06T08:29:14.983Z,997.74
2019-03-06T08:30:14.968Z,997.78
2019-03-06T08:31:14.935Z,997.77
2019-03-06T08:32:14.918Z,997.76
2019-03-06T08:33:18.227Z,997.71
2019-03-06T08:34:14.877Z,997.69
2019-03-06T08:35:14.844Z,997.65
2019-03-06T08:36:14.818Z,997.65
2019-03-06T08:37:14.802Z,997.66
2019-03-06T08:38:14.770Z,997.62
2019-03-06T08:39:14.749Z,997.57
2019-03-06T08:40:14.726Z,997.53
2019-03-06T08:41:14.703Z,997.57
2019-03-06T08:42:14.685Z,997.50
2019-03-06T08:43:14.666Z,997.50
2019-03-06T08:44:14.638Z,997.48
2019-03-06T08:45:14.611Z,997.48
2019-03-06T08:46:14.589Z,997.48
2019-03-06T08:47:14.567Z,997.50
2019-03-06T08:48:14.549Z,997.48
2019-03-06T08:49:14.520Z,997.44
2019-03-06T08:50:14.498Z,997.46
2019-03-06T08:51:14.479Z,997.44
2019-03-06T08:52:14.450Z,997.40
2019-03-06T08:53:14.437Z,997.37
2019-03-06T08:54:14.405Z,997.34
2019-03-06T08:55:14.391Z,997.37
2019-03-06T08:56:14.359Z,997.31
2019-03-06T08:57:14.336Z,997.32
2019-03-06T08:58:14.313Z,997.30
2019-03-06T08:59:14.293Z,997.29
2019-03-06T09:00:14.269Z,997.30
2019-03-06T09:01:14.248Z,997.25
2019-03-06T09:02:15.736Z,997.24
2019-03-06T09:03:14.199Z,997.19
2019-03-06T09:04:14.179Z,997.23
2019-03-06T09:05:14.153Z,997.16
2019-03-06T09:06:14.133Z,997.16
2019-03-06T09:07:14.114Z,997.12
2019-03-06T09:08:14.088Z,997.13
2019-03-06T09:09:14.070Z,997.09
2019-03-06T09:10:14.044Z,997.09
2019-03-06T09:11:14.022Z,997.15
2019-03-06T09:12:14.003Z,997.12
2019-03-06T09:13:13.973Z,997.09
2019-03-06T09:14:13.950Z,997.14
2019-03-06T09:15:13.927Z,997.08
2019-03-06T09:16:13.904Z,997.08
2019-03-06T09:17:13.876Z,997.08
2019-03-06T09:18:13.858Z,997.06
2019-03-06T09:19:13.835Z,997.06
2019-03-06T09:20:13.809Z,997.11
2019-03-06T09:21:13.794Z,997.08
2019-03-06T09:22:13.765Z,997.07
2019-03-06T09:23:22.597Z,997.08
2019-03-06T09:24:13.719Z,997.03
2019-03-06T09:25:13.704Z,996.99
2019-03-06T09:26:13.680Z,997.02
2019-03-06T09:27:13.652Z,997.03
2019-03-06T09:28:13.631Z,996.99
2019-03-06T09:29:13.608Z,997.02
2019-03-06T09:30:16.262Z,996.96
2019-03-06T09:31:13.609Z,996.90
2019-03-06T09:32:13.543Z,996.85
2019-03-06T09:33:13.518Z,996.83
2019-03-06T09:34:13.494Z,996.79
2019-03-06T09:35:13.475Z,996.76
2019-03-06T09:36:13.451Z,996.75
2019-03-06T09:37:13.429Z,996.75
2019-03-06T09:38:13.406Z,996.75
2019-03-06T09:39:13.384Z,996.71
2019-03-06T09:40:13.354Z,996.74
2019-03-06T09:41:13.346Z,996.66
2019-03-06T09:42:13.317Z,996.65
2019-03-06T09:43:13.291Z,996.64
2019-03-06T09:44:13.272Z,996.63
2019-03-06T09:45:13.248Z,996.63
2019-03-06T09:46:13.222Z,996.58
2019-03-06T09:47:13.203Z,996.58
2019-03-06T09:48:13.196Z,996.57
2019-03-06T09:49:13.159Z,996.55
2019-03-06T09:50:13.134Z,996.49
2019-03-06T09:51:13.118Z,996.46
2019-03-06T09:52:13.090Z,996.42
2019-03-06T09:53:13.065Z,996.41
2019-03-06T09:54:13.044Z,996.39
2019-03-06T09:55:13.023Z,996.34
2019-03-06T09:56:13.000Z,996.29
2019-03-06T09:57:12.981Z,996.20
2019-03-06T09:58:12.962Z,996.23
2019-03-06T09:59:12.936Z,996.15
2019-03-06T10:00:12.913Z,996.18
2019-03-06T10:01:12.893Z,996.16
2019-03-06T10:02:12.865Z,996.12
2019-03-06T10:03:12.843Z,996.08
2019-03-06T10:04:12.822Z,996.10
2019-03-06T10:05:12.800Z,996.05
2019-03-06T10:06:12.790Z,996.08
2019-03-06T10:07:12.757Z,996.00
2019-03-06T10:08:12.735Z,996.03
2019-03-06T10:09:12.716Z,996.06
2019-03-06T10:10:12.693Z,995.98
2019-03-06T10:11:12.674Z,995.94
2019-03-06T10:12:12.650Z,995.98
2019-03-06T10:13:12.622Z,995.95
2019-03-06T10:14:12.603Z,995.97
2019-03-06T10:15:12.587Z,995.94
2019-03-06T10:16:12.577Z,995.89
2019-03-06T10:17:12.542Z,995.86
2019-03-06T10:18:12.525Z,995.83
2019-03-06T10:19:12.502Z,995.78
2019-03-06T10:20:12.476Z,995.77
2019-03-06T10:21:12.458Z,995.71
2019-03-06T10:22:12.426Z,995.74
2019-03-06T10:23:12.410Z,995.66
2019-03-06T10:24:12.391Z,995.70
2019-03-06T10:25:12.359Z,995.64
2019-03-06T10:26:12.344Z,995.62
2019-03-06T10:27:12.324Z,995.55
2019-03-06T10:28:12.302Z,995.57
2019-03-06T10:29:12.277Z,995.53
2019-03-06T10:30:12.255Z,995.52
2019-03-06T10:31:12.229Z,995.48
2019-03-06T10:32:12.214Z,995.45
2019-03-06T10:33:12.196Z,995.40
2019-03-06T10:34:12.172Z,995.49
2019-03-06T10:35:12.147Z,995.50
2019-03-06T10:36:12.128Z,995.48
2019-03-06T10:37:12.115Z,995.43
2019-03-06T10:38:16.625Z,995.43
2019-03-06T10:39:12.064Z,995.40
2019-03-06T10:40:12.043Z,995.39
2019-03-06T10:41:12.016Z,995.42
2019-03-06T10:42:11.997Z,995.34
2019-03-06T10:43:11.979Z,995.35
2019-03-06T10:44:11.959Z,995.33
2019-03-06T10:45:11.938Z,995.34
2019-03-06T10:46:11.918Z,995.29
2019-03-06T10:47:11.892Z,995.23
2019-03-06T10:48:11.868Z,995.20
2019-03-06T10:49:11.854Z,995.19
2019-03-06T10:50:11.829Z,995.18
2019-03-06T10:51:11.813Z,995.25
2019-03-06T10:52:11.798Z,995.33
2019-03-06T10:53:11.765Z,995.36
2019-03-06T10:54:11.746Z,995.35
2019-03-06T10:55:11.715Z,995.33
2019-03-06T10:56:11.697Z,995.23
2019-03-06T10:57:11.935Z,995.31
2019-03-06T10:58:11.661Z,995.33
2019-03-06T10:59:11.639Z,995.27
2019-03-06T11:00:11.621Z,995.24
2019-03-06T11:01:11.596Z,995.24
2019-03-06T11:02:11.580Z,995.25
2019-03-06T11:03:11.558Z,995.26
2019-03-06T11:04:11.528Z,995.32
2019-03-06T11:05:11.507Z,995.32
2019-03-06T11:06:11.484Z,995.19
2019-03-06T11:07:11.466Z,995.17
2019-03-06T11:08:11.444Z,995.15
2019-03-06T11:09:11.420Z,995.18
2019-03-06T11:10:11.398Z,995.19
2019-03-06T11:11:11.387Z,995.24
2019-03-06T11:12:11.355Z,995.15
2019-03-06T11:13:11.340Z,995.18
2019-03-06T11:14:11.318Z,995.13
2019-03-06T11:15:11.292Z,995.15
2019-03-06T11:16:11.275Z,995.10
2019-03-06T11:17:11.255Z,995.10
2019-03-06T11:18:11.229Z,995.11
2019-03-06T11:19:11.212Z,995.04
2019-03-06T11:20:11.187Z,994.98
2019-03-06T11:21:11.169Z,994.92
2019-03-06T11:22:11.154Z,994.94
2019-03-06T11:23:11.131Z,994.91
2019-03-06T11:24:11.103Z,994.92
2019-03-06T11:25:11.082Z,994.90
2019-03-06T11:26:11.058Z,994.88
2019-03-06T11:27:11.039Z,994.88
2019-03-06T11:28:11.017Z,994.82
2019-03-06T11:29:10.996Z,994.87
2019-03-06T11:30:10.969Z,994.78
2019-03-06T11:31:10.953Z,994.79
2019-03-06T11:32:10.932Z,994.79
2019-03-06T11:33:10.917Z,994.76
2019-03-06T11:34:10.887Z,994.79
2019-03-06T11:35:10.874Z,994.74
2019-03-06T11:36:10.847Z,994.74
2019-03-06T11:37:10.894Z,994.81
2019-03-06T11:38:10.824Z,994.79
2019-03-06T11:39:10.785Z,994.73
2019-03-06T11:40:10.763Z,994.75
2019-03-06T11:41:10.762Z,994.74
2019-03-06T11:42:10.717Z,994.72
2019-03-06T11:43:10.703Z,994.63
2019-03-06T11:44:10.679Z,994.70
2019-03-06T11:45:10.666Z,994.71
2019-03-06T11:46:10.641Z,994.70
2019-03-06T11:47:10.621Z,994.67
2019-03-06T11:48:10.602Z,994.65
2019-03-06T11:49:10.578Z,994.66
2019-03-06T11:50:10.557Z,994.55
2019-03-06T11:51:10.534Z,994.60
2019-03-06T11:52:10.514Z,994.52
2019-03-06T11:53:10.493Z,994.49
2019-03-06T11:54:10.473Z,994.46
2019-03-06T11:55:10.451Z,994.50
2019-03-06T11:56:10.793Z,994.44
2019-03-06T11:57:10.416Z,994.42
2019-03-06T11:58:10.391Z,994.35
2019-03-06T11:59:10.373Z,994.39
2019-03-06T12:00:10.349Z,994.33
2019-03-06T12:01:10.329Z,994.32
2019-03-06T12:02:10.307Z,994.33
2019-03-06T12:03:10.288Z,994.26
2019-03-06T12:04:10.265Z,994.30
2019-03-06T12:05:10.248Z,994.28
2019-03-06T12:06:10.223Z,994.27
2019-03-06T12:07:10.213Z,994.18
2019-03-06T12:08:10.181Z,994.20
2019-03-06T12:09:10.178Z,994.18
2019-03-06T12:10:10.328Z,994.17
2019-03-06T12:11:10.119Z,994.11
2019-03-06T12:12:10.101Z,994.14
2019-03-06T12:13:10.078Z,994.01
2019-03-06T12:14:10.057Z,993.98
2019-03-06T12:15:10.035Z,993.97
2019-03-06T12:16:10.021Z,993.99
2019-03-06T12:17:09.997Z,993.95
2019-03-06T12:18:09.973Z,993.95